Minerva Zenia — SYNB — position and weather

sailwx.info

Track history (hours):
 
Tides and Currents Weather Stations Pressure Air Temp Water Temp Dewpoint Dewpoint Depression Visibility Wind Speed Wind Dir Waves Ship Positions

Minerva Zenia

Last reported at 2015-Jan-16 04:19 UTC. Time now 2015-Jan-31 07:02 UTC.
Position N 38°16' W 030°20'.
Warning: this ship's position is 15 days out of date.

Length 248 m; draft 14 m.

Type: Ship (hazmat cat C). MMSI: 240014000.

Date/timePositionNaut miles runAvg speedWind from/ knotsBaromVisibWave heightAir tempDewpointWater temp
2015-Jan-16 04:19N 38°16' W 030°20'912.3
2015-Jan-16 03:33N 38°22' W 030°12'1312.7
2015-Jan-16 02:33N 38°31' W 029°60'1212.5
2015-Jan-16 01:33N 38°39' W 029°48'1312.7
2015-Jan-16 00:33N 38°48' W 029°36'1312.6
2015-Jan-15 23:33N 38°58' W 029°25'1312.7
2015-Jan-15 22:33N 39°07' W 029°15'1312.8
2015-Jan-15 21:32N 39°18' W 029°05'1312.9
2015-Jan-15 20:33N 39°29' W 028°56'1312.8
2015-Jan-15 19:33N 39°39' W 028°47'1312.8
2015-Jan-15 18:33N 39°50' W 028°38'1312.6
2015-Jan-15 17:33N 40°01' W 028°30'  
Track history (hours):
 
Tides and Currents Weather Stations Pressure Air Temp Water Temp Dewpoint Dewpoint Depression Visibility Wind Speed Wind Dir Waves Ship Positions

Minerva Zenia

Last reported at 2015-Jan-16 04:19 UTC. Time now 2015-Jan-31 07:02 UTC.
Position N 38°16' W 030°20'.
Warning: this ship's position is 15 days out of date.

Length 248 m; draft 14 m.

Type: Ship (hazmat cat C). MMSI: 240014000.

Date/timePositionNaut miles runAvg speedWind from/ knotsBaromVisibWave heightAir tempDewpointWater temp
2015-Jan-16 04:19N 38°16' W 030°20'912.3
2015-Jan-16 03:33N 38°22' W 030°12'1312.7
2015-Jan-16 02:33N 38°31' W 029°60'1212.5
2015-Jan-16 01:33N 38°39' W 029°48'1312.7
2015-Jan-16 00:33N 38°48' W 029°36'1312.6
2015-Jan-15 23:33N 38°58' W 029°25'1312.7
2015-Jan-15 22:33N 39°07' W 029°15'1312.8
2015-Jan-15 21:32N 39°18' W 029°05'1312.9
2015-Jan-15 20:33N 39°29' W 028°56'1312.8
2015-Jan-15 19:33N 39°39' W 028°47'1312.8
2015-Jan-15 18:33N 39°50' W 028°38'1312.6
2015-Jan-15 17:33N 40°01' W 028°30'  

Dump ship's entire track history